Terminal Aerodrome Forecast
Issued by NWS

Home | Current Version | Previous Version | Text Only | Print | Product List | Glossary On
Versions: 1 2 3 4 5 6 7 8 9 10 11 12 13 14 15 16 17 18 19 20 21 22 23 24 25 26 27 28 29 30 31 32
000
FTAK31 PAFA 292327 CCA
TAFAQT
TAF COR
PAQT 292327Z 3000/3024 33008KT P6SM OVC040
     FM300200 03006KT P6SM BKN010
     FM300900 07008KT 1SM BR OVC005
     FM301900 08013KT P6SM FEW005 BKN100=

USA.gov is the U.S. government's official web portal to all federal, state and local government web resources and services.